createdAt,value
2024-03-20T00:00:22.444Z,5.31
2024-03-20T00:02:49.769Z,5.31
2024-03-20T00:05:22.713Z,5.32
2024-03-20T00:07:50.103Z,5.32
2024-03-20T00:10:18.072Z,5.33
2024-03-20T00:12:50.258Z,5.33
2024-03-20T00:15:17.701Z,5.32
2024-03-20T00:17:46.998Z,5.31
2024-03-20T00:20:18.448Z,5.29
2024-03-20T00:22:46.008Z,5.27
2024-03-20T00:25:14.287Z,5.26
2024-03-20T00:27:41.847Z,5.25
2024-03-20T00:30:11.380Z,5.23
2024-03-20T00:32:38.913Z,5.22
2024-03-20T00:35:09.197Z,5.21
2024-03-20T00:37:36.694Z,5.20
2024-03-20T00:40:05.392Z,5.20
2024-03-20T00:42:32.761Z,5.21
2024-03-20T00:45:00.908Z,5.21
2024-03-20T00:47:28.480Z,5.22
2024-03-20T00:49:55.851Z,5.21
2024-03-20T00:52:26.083Z,5.21
2024-03-20T00:54:56.782Z,5.22
2024-03-20T00:57:28.339Z,5.22
2024-03-20T00:59:55.999Z,5.25
2024-03-20T01:02:24.276Z,5.26
2024-03-20T01:04:51.941Z,5.26
2024-03-20T01:07:19.397Z,5.27
2024-03-20T01:09:47.065Z,5.27
2024-03-20T01:12:14.517Z,5.27
2024-03-20T01:14:41.769Z,5.28
2024-03-20T01:17:09.228Z,5.29
2024-03-20T01:19:36.692Z,5.29
2024-03-20T01:22:04.160Z,5.31
2024-03-20T01:24:40.470Z,5.31
2024-03-20T01:27:07.661Z,5.31
2024-03-20T01:29:35.015Z,5.31
2024-03-20T01:32:02.373Z,5.30
2024-03-20T01:34:30.033Z,5.30
2024-03-20T01:36:57.697Z,5.29
2024-03-20T01:39:25.917Z,5.28
2024-03-20T01:41:53.148Z,5.28
2024-03-20T01:44:20.489Z,5.28
2024-03-20T01:46:48.342Z,5.28
2024-03-20T01:49:18.260Z,5.28
2024-03-20T01:51:45.932Z,5.28
2024-03-20T02:00:28.825Z,5.34
2024-03-20T02:03:05.168Z,5.33
2024-03-20T02:05:35.376Z,5.33
2024-03-20T02:08:03.050Z,5.34
2024-03-20T02:10:33.401Z,5.33
2024-03-20T02:15:53.782Z,5.31
2024-03-20T02:18:21.466Z,5.30
2024-03-20T02:20:51.689Z,5.29
2024-03-20T02:23:24.616Z,5.28
2024-03-20T02:26:10.025Z,5.27
2024-03-20T02:28:42.875Z,5.25
2024-03-20T02:31:15.915Z,5.24
2024-03-20T02:33:49.907Z,5.23
2024-03-20T02:36:17.583Z,5.22
2024-03-20T02:38:45.554Z,5.22
2024-03-20T02:41:19.857Z,5.22
2024-03-20T02:43:47.522Z,5.21
2024-03-20T02:46:16.730Z,5.20
2024-03-20T02:48:51.662Z,5.20
2024-03-20T02:51:19.316Z,5.20
2024-03-20T02:53:50.034Z,5.20
2024-03-20T02:56:34.200Z,5.20
2024-03-20T02:59:06.063Z,5.20
2024-03-20T03:01:47.955Z,5.21
2024-03-20T03:04:15.826Z,5.22
2024-03-20T03:06:46.903Z,5.22
2024-03-20T03:09:20.773Z,5.22
2024-03-20T03:11:48.540Z,5.21
2024-03-20T03:14:17.960Z,5.19
2024-03-20T03:16:48.987Z,5.18
2024-03-20T03:19:18.807Z,5.16
2024-03-20T03:21:46.666Z,5.15
2024-03-20T03:24:15.660Z,5.14
2024-03-20T03:26:46.712Z,5.12
2024-03-20T03:29:14.974Z,5.11
2024-03-20T03:31:45.939Z,5.09
2024-03-20T03:34:19.158Z,5.08
2024-03-20T03:36:49.208Z,5.05
2024-03-20T03:39:17.302Z,5.02
2024-03-20T03:41:49.176Z,5.00
2024-03-20T03:44:24.398Z,4.99
2024-03-20T03:46:52.884Z,4.99
2024-03-20T03:49:29.563Z,4.98
2024-03-20T03:51:57.329Z,4.97
2024-03-20T03:54:24.991Z,4.95
2024-03-20T03:56:53.574Z,4.94
2024-03-20T03:59:25.332Z,4.93
2024-03-20T04:02:05.407Z,4.92
2024-03-20T04:04:36.802Z,4.92
2024-03-20T04:07:05.695Z,4.92
2024-03-20T04:09:33.796Z,4.90
2024-03-20T04:12:05.458Z,4.90
2024-03-20T04:14:33.838Z,4.90
2024-03-20T04:17:07.272Z,4.89
2024-03-20T04:27:23.400Z,4.98
2024-03-20T04:29:51.468Z,4.98
2024-03-20T04:32:21.935Z,4.99
2024-03-20T04:35:01.009Z,5.00
2024-03-20T04:37:29.192Z,5.01
2024-03-20T04:40:18.965Z,5.01
2024-03-20T04:42:47.044Z,5.02
2024-03-20T04:45:14.916Z,5.04
2024-03-20T04:47:44.777Z,5.05
2024-03-20T04:50:13.226Z,5.07
2024-03-20T04:52:43.524Z,5.08
2024-03-20T04:55:11.354Z,5.10
2024-03-20T04:57:39.360Z,5.12
2024-03-20T05:00:24.226Z,5.14
2024-03-20T05:10:35.967Z,5.43
2024-03-20T05:13:24.011Z,5.54
2024-03-20T05:15:51.983Z,5.61
2024-03-20T05:18:23.119Z,5.66
2024-03-20T05:21:06.008Z,5.69
2024-03-20T05:23:37.758Z,5.67
2024-03-20T05:26:10.397Z,5.67
2024-03-20T05:28:38.454Z,5.68
2024-03-20T05:31:26.392Z,5.71
2024-03-20T05:33:57.123Z,5.72
2024-03-20T05:36:27.252Z,5.72
2024-03-20T05:38:55.930Z,5.73
2024-03-20T05:41:23.899Z,5.77
2024-03-20T05:43:55.017Z,5.78
2024-03-20T05:49:13.544Z,5.77
2024-03-20T05:51:42.372Z,5.76
2024-03-20T05:54:16.015Z,5.76
2024-03-20T05:56:51.311Z,5.76
2024-03-20T06:01:25.064Z,5.75
2024-03-20T06:03:55.822Z,5.76
2024-03-20T06:06:31.801Z,5.76
2024-03-20T06:12:07.579Z,5.84
2024-03-20T06:14:41.812Z,5.87
2024-03-20T06:17:12.379Z,5.89
2024-03-20T06:19:40.364Z,5.92
2024-03-20T06:22:08.013Z,5.97
2024-03-20T06:24:41.013Z,6.05
2024-03-20T06:27:08.774Z,6.12
2024-03-20T06:29:39.153Z,6.16
2024-03-20T06:32:09.025Z,6.20
2024-03-20T06:34:37.180Z,6.22
2024-03-20T06:37:30.807Z,6.23
2024-03-20T06:39:58.619Z,6.21
2024-03-20T06:42:52.902Z,6.21
2024-03-20T06:45:24.055Z,6.23
2024-03-20T06:47:54.800Z,6.22
2024-03-20T06:50:25.106Z,6.20
2024-03-20T06:53:01.884Z,6.21
2024-03-20T06:55:37.633Z,6.24
2024-03-20T06:58:07.348Z,6.30
2024-03-20T07:00:35.023Z,6.34
2024-03-20T07:03:07.388Z,6.39
2024-03-20T07:06:05.868Z,6.46
2024-03-20T07:08:39.168Z,6.52
2024-03-20T07:11:47.750Z,6.59
2024-03-20T07:14:28.655Z,6.68
2024-03-20T07:17:04.720Z,6.77
2024-03-20T07:19:33.929Z,6.86
2024-03-20T07:22:09.786Z,6.94
2024-03-20T07:24:41.325Z,7.01
2024-03-20T07:27:18.907Z,7.05
2024-03-20T07:29:51.401Z,7.03
2024-03-20T07:32:31.204Z,7.03
2024-03-20T07:35:16.331Z,7.01
2024-03-20T07:37:44.391Z,7.06
2024-03-20T07:40:22.893Z,7.13
2024-03-20T07:42:51.494Z,7.21
2024-03-20T07:55:34.994Z,7.67
2024-03-20T07:58:56.630Z,7.90
2024-03-20T08:01:30.242Z,7.98
2024-03-20T08:04:17.905Z,8.03
2024-03-20T08:07:02.534Z,8.12
2024-03-20T08:09:54.172Z,8.22
2024-03-20T08:13:20.446Z,8.35
2024-03-20T08:15:53.463Z,8.47
2024-03-20T08:18:37.106Z,8.53
2024-03-20T08:22:04.053Z,8.54
2024-03-20T08:24:51.991Z,8.58
2024-03-20T08:27:28.809Z,8.53
2024-03-20T08:30:30.655Z,8.51
2024-03-20T08:33:37.318Z,8.49
2024-03-20T08:36:13.472Z,8.46
2024-03-20T08:43:10.455Z,8.50
2024-03-20T08:46:52.043Z,8.65
2024-03-20T08:50:10.234Z,8.84
2024-03-20T08:53:36.078Z,8.90
2024-03-20T08:56:33.784Z,8.97
2024-03-20T09:06:07.617Z,8.99
2024-03-20T09:13:07.040Z,8.87
2024-03-20T09:16:25.082Z,8.87
2024-03-20T09:22:46.324Z,9.08
2024-03-20T09:25:21.490Z,9.43
2024-03-20T09:28:03.186Z,9.69
2024-03-20T09:30:38.768Z,9.77
2024-03-20T09:33:33.606Z,9.79
2024-03-20T09:36:53.422Z,9.84
2024-03-20T09:40:35.021Z,10.08
2024-03-20T09:43:53.575Z,10.35
2024-03-20T09:46:31.375Z,10.50
2024-03-20T09:49:42.010Z,10.57
2024-03-20T09:52:31.889Z,10.58
2024-03-20T09:54:59.590Z,10.49
2024-03-20T09:58:09.312Z,10.36
2024-03-20T10:03:28.124Z,10.10
2024-03-20T10:06:50.903Z,9.86
2024-03-20T10:09:22.542Z,9.74
2024-03-20T10:11:59.916Z,9.69
2024-03-20T10:15:25.179Z,9.61
2024-03-20T10:18:33.697Z,9.68
2024-03-20T10:21:36.094Z,9.78
2024-03-20T10:27:28.856Z,10.31
2024-03-20T10:30:00.238Z,10.20
2024-03-20T10:32:33.675Z,10.04
2024-03-20T10:35:21.793Z,10.04
2024-03-20T10:38:15.766Z,10.17
2024-03-20T10:42:01.880Z,10.40
2024-03-20T10:45:09.980Z,10.49
2024-03-20T10:47:47.113Z,10.54
2024-03-20T10:51:16.575Z,10.47
2024-03-20T10:54:05.743Z,10.47
2024-03-20T11:00:54.447Z,10.25
2024-03-20T11:11:22.022Z,9.69
2024-03-20T11:17:51.084Z,9.63
2024-03-20T11:20:46.786Z,9.71
2024-03-20T11:24:03.804Z,9.92
2024-03-20T11:30:39.009Z,9.90
2024-03-20T11:33:12.686Z,10.03
2024-03-20T11:44:47.800Z,10.61
2024-03-20T11:47:36.636Z,10.27
2024-03-20T11:51:10.149Z,10.05
2024-03-20T11:53:46.090Z,9.94
2024-03-20T11:57:14.439Z,9.89
2024-03-20T12:00:16.489Z,9.86
2024-03-20T12:08:00.952Z,10.09
2024-03-20T12:10:55.027Z,10.25
2024-03-20T12:13:31.396Z,10.35
2024-03-20T12:16:32.338Z,10.42
2024-03-20T12:19:51.468Z,10.53
2024-03-20T12:22:22.613Z,10.59
2024-03-20T12:25:14.322Z,10.81
2024-03-20T12:28:12.525Z,11.06
2024-03-20T12:33:42.973Z,11.25
2024-03-20T12:36:28.611Z,11.23
2024-03-20T12:40:41.196Z,11.13
2024-03-20T12:47:14.542Z,10.66
2024-03-20T12:49:57.834Z,10.56
2024-03-20T12:56:17.676Z,10.19
2024-03-20T12:59:07.612Z,10.11
2024-03-20T13:01:35.836Z,10.02
2024-03-20T13:09:33.146Z,9.95
2024-03-20T13:12:07.917Z,9.90
2024-03-20T13:20:53.938Z,9.90
2024-03-20T13:23:29.726Z,9.86
2024-03-20T13:26:05.838Z,9.82
2024-03-20T13:28:34.180Z,9.81
2024-03-20T13:31:09.322Z,9.82
2024-03-20T13:33:41.591Z,9.82
2024-03-20T13:36:28.038Z,9.82
2024-03-20T13:39:19.322Z,9.81
2024-03-20T13:41:59.566Z,9.80
2024-03-20T13:44:38.378Z,9.79
2024-03-20T13:47:27.781Z,9.79
2024-03-20T13:50:02.296Z,9.79
2024-03-20T13:52:37.238Z,9.78
2024-03-20T13:55:09.595Z,9.76
2024-03-20T13:57:49.969Z,9.76
2024-03-20T14:00:18.961Z,9.76
2024-03-20T14:02:50.368Z,9.78
2024-03-20T14:05:23.708Z,9.81
2024-03-20T14:07:59.144Z,9.82
2024-03-20T14:10:30.086Z,9.83
2024-03-20T14:13:10.528Z,9.83
2024-03-20T14:15:45.378Z,9.83
2024-03-20T14:18:14.011Z,9.84
2024-03-20T14:20:46.831Z,9.84
2024-03-20T14:23:20.951Z,9.84
2024-03-20T14:25:54.454Z,9.83
2024-03-20T14:28:25.911Z,9.81
2024-03-20T14:31:04.372Z,9.78
2024-03-20T14:33:57.481Z,9.78
2024-03-20T14:36:27.320Z,9.76
2024-03-20T14:39:12.367Z,9.76
2024-03-20T14:41:45.763Z,9.73
2024-03-20T14:44:15.068Z,9.71
2024-03-20T14:46:48.955Z,9.70
2024-03-20T14:49:30.296Z,9.68
2024-03-20T14:52:04.774Z,9.67
2024-03-20T14:54:39.035Z,9.65
2024-03-20T14:57:21.269Z,9.63
2024-03-20T14:59:55.617Z,9.58
2024-03-20T15:02:34.034Z,9.55
2024-03-20T15:05:15.244Z,9.52
2024-03-20T15:08:42.619Z,9.47
2024-03-20T15:11:21.354Z,9.43
2024-03-20T15:14:01.860Z,9.39
2024-03-20T15:16:32.830Z,9.36
2024-03-20T15:19:01.188Z,9.32
2024-03-20T15:21:34.878Z,9.29
2024-03-20T15:24:07.698Z,9.26
2024-03-20T15:26:41.683Z,9.22
2024-03-20T15:29:18.862Z,9.18
2024-03-20T15:31:53.595Z,9.13
2024-03-20T15:34:30.269Z,9.10
2024-03-20T15:37:02.952Z,9.07
2024-03-20T15:39:37.780Z,9.04
2024-03-20T15:42:28.904Z,9.00
2024-03-20T15:45:02.910Z,8.96
2024-03-20T15:47:41.617Z,8.92
2024-03-20T15:50:19.555Z,8.89
2024-03-20T15:52:48.112Z,8.84
2024-03-20T15:55:19.544Z,8.80
2024-03-20T15:57:51.329Z,8.78
2024-03-20T16:00:26.723Z,8.74
2024-03-20T16:02:58.649Z,8.72
2024-03-20T16:05:37.289Z,8.69
2024-03-20T16:08:11.012Z,8.66
2024-03-20T16:10:39.919Z,8.64
2024-03-20T16:13:08.836Z,8.61
2024-03-20T16:15:36.511Z,8.58
2024-03-20T16:18:28.742Z,8.56
2024-03-20T16:21:11.868Z,8.53
2024-03-20T16:23:50.487Z,8.50
2024-03-20T16:26:44.259Z,8.48
2024-03-20T16:29:30.168Z,8.46
2024-03-20T16:32:05.811Z,8.44
2024-03-20T16:34:45.348Z,8.42
2024-03-20T16:37:34.200Z,8.40
2024-03-20T16:40:13.108Z,8.37
2024-03-20T16:42:50.636Z,8.34
2024-03-20T16:45:38.761Z,8.31
2024-03-20T16:48:13.648Z,8.29
2024-03-20T16:50:44.031Z,8.27
2024-03-20T16:53:16.160Z,8.26
2024-03-20T16:55:58.206Z,8.23
2024-03-20T16:58:37.521Z,8.22
2024-03-20T17:04:22.320Z,8.15
2024-03-20T17:07:09.626Z,8.11
2024-03-20T17:09:48.450Z,8.09
2024-03-20T17:12:25.332Z,8.06
2024-03-20T17:14:59.860Z,8.05
2024-03-20T17:17:29.276Z,8.04
2024-03-20T17:20:07.641Z,8.03
2024-03-20T17:22:47.576Z,8.05
2024-03-20T17:25:32.247Z,8.05
2024-03-20T17:28:08.412Z,8.07
2024-03-20T17:30:49.525Z,8.08
2024-03-20T17:33:31.422Z,8.09
2024-03-20T17:36:00.411Z,8.10
2024-03-20T17:38:29.410Z,8.10
2024-03-20T17:41:12.224Z,8.11
2024-03-20T17:43:58.594Z,8.11
2024-03-20T17:46:40.932Z,8.12
2024-03-20T17:49:14.846Z,8.13
2024-03-20T17:51:59.174Z,8.13
2024-03-20T17:54:28.294Z,8.14
2024-03-20T17:56:57.149Z,8.14
2024-03-20T17:59:30.284Z,8.14
2024-03-20T18:02:09.713Z,8.12
2024-03-20T18:05:07.108Z,8.10
2024-03-20T18:07:58.186Z,8.07
2024-03-20T18:10:42.177Z,8.07
2024-03-20T18:13:36.520Z,8.06
2024-03-20T18:19:32.360Z,8.01
2024-03-20T18:22:10.978Z,7.98
2024-03-20T18:24:46.529Z,7.95
2024-03-20T18:27:20.745Z,7.93
2024-03-20T18:29:57.653Z,7.91
2024-03-20T18:32:30.940Z,7.89
2024-03-20T18:35:11.225Z,7.86
2024-03-20T18:37:44.173Z,7.84
2024-03-20T18:40:17.569Z,7.82
2024-03-20T18:42:47.391Z,7.81
2024-03-20T18:45:38.092Z,7.79
2024-03-20T18:48:10.077Z,7.77
2024-03-20T18:50:40.683Z,7.76
2024-03-20T18:53:10.705Z,7.73
2024-03-20T18:55:47.160Z,7.71
2024-03-20T18:58:20.352Z,7.69
2024-03-20T19:01:19.522Z,7.70
2024-03-20T19:04:02.052Z,7.70
2024-03-20T19:06:38.228Z,7.68
2024-03-20T19:09:21.574Z,7.64
2024-03-20T19:11:50.207Z,7.58
2024-03-20T19:14:21.591Z,7.54
2024-03-20T19:17:09.490Z,7.50
2024-03-20T19:27:38.889Z,7.46
2024-03-20T19:30:10.239Z,7.39
2024-03-20T19:32:46.145Z,7.35
2024-03-20T19:35:20.247Z,7.30
2024-03-20T19:38:16.447Z,7.27
2024-03-20T19:41:03.873Z,7.24
2024-03-20T19:43:44.941Z,7.22
2024-03-20T19:46:29.192Z,7.21
2024-03-20T19:49:27.374Z,7.18
2024-03-20T19:52:12.847Z,7.15
2024-03-20T19:55:10.832Z,7.11
2024-03-20T19:57:54.153Z,7.09
2024-03-20T20:06:43.672Z,6.98
2024-03-20T20:09:40.512Z,6.96
2024-03-20T20:12:26.407Z,6.92
2024-03-20T20:15:01.665Z,6.88
2024-03-20T20:17:46.411Z,6.83
2024-03-20T20:20:19.869Z,6.80
2024-03-20T20:23:06.328Z,6.77
2024-03-20T20:25:49.033Z,6.74
2024-03-20T20:28:31.635Z,6.72
2024-03-20T20:31:22.765Z,6.70
2024-03-20T20:33:59.482Z,6.69
2024-03-20T20:36:29.346Z,6.68
2024-03-20T20:39:11.085Z,6.68
2024-03-20T20:41:45.386Z,6.66
2024-03-20T20:44:17.107Z,6.66
2024-03-20T20:47:06.999Z,6.64
2024-03-20T20:49:34.658Z,6.63
2024-03-20T20:52:05.307Z,6.63
2024-03-20T20:54:34.918Z,6.61
2024-03-20T20:57:06.317Z,6.60
2024-03-20T20:59:33.918Z,6.59
2024-03-20T21:02:21.517Z,6.57
2024-03-20T21:05:12.953Z,6.57
2024-03-20T21:08:04.889Z,6.55
2024-03-20T21:10:55.808Z,6.53
2024-03-20T21:13:46.695Z,6.52
2024-03-20T21:16:35.667Z,6.50
2024-03-20T21:19:34.363Z,6.48
2024-03-20T21:22:06.141Z,6.46
2024-03-20T21:24:39.836Z,6.44
2024-03-20T21:27:13.236Z,6.42
2024-03-20T21:29:41.307Z,6.40
2024-03-20T21:32:19.859Z,6.40
2024-03-20T21:34:53.615Z,6.39
2024-03-20T21:37:28.653Z,6.37
2024-03-20T21:40:08.130Z,6.37
2024-03-20T21:42:38.757Z,6.36
2024-03-20T21:45:19.292Z,6.35
2024-03-20T21:47:57.397Z,6.35
2024-03-20T21:50:30.177Z,6.34
2024-03-20T21:53:00.518Z,6.34
2024-03-20T21:55:30.581Z,6.33
2024-03-20T21:58:14.338Z,6.33
2024-03-20T22:01:22.074Z,6.31
2024-03-20T22:04:01.001Z,6.29
2024-03-20T22:07:02.761Z,6.25
2024-03-20T22:10:05.014Z,6.24
2024-03-20T22:12:22.665Z,6.21
2024-03-20T22:14:56.872Z,6.19
2024-03-20T22:17:54.382Z,6.17
2024-03-20T22:20:52.832Z,6.14
2024-03-20T22:23:28.464Z,6.12
2024-03-20T22:26:00.085Z,6.09
2024-03-20T22:28:33.929Z,6.07
2024-03-20T22:31:07.327Z,6.03
2024-03-20T22:33:41.071Z,5.99
2024-03-20T22:36:21.710Z,5.97
2024-03-20T22:38:49.666Z,5.95
2024-03-20T22:41:23.095Z,5.94
2024-03-20T22:44:17.080Z,5.93
2024-03-20T22:46:54.959Z,5.92
2024-03-20T22:49:37.682Z,5.91
2024-03-20T22:52:17.820Z,5.90
2024-03-20T22:54:46.300Z,5.88
2024-03-20T22:57:18.703Z,5.88
2024-03-20T23:00:01.798Z,5.85
2024-03-20T23:02:39.707Z,5.83
2024-03-20T23:05:14.062Z,5.81
2024-03-20T23:07:51.786Z,5.78
2024-03-20T23:10:51.336Z,5.75
2024-03-20T23:13:24.538Z,5.71
2024-03-20T23:16:04.063Z,5.67
2024-03-20T23:18:52.315Z,5.64
2024-03-20T23:21:32.098Z,5.60
2024-03-20T23:24:26.083Z,5.58
2024-03-20T23:27:05.571Z,5.56
2024-03-20T23:30:04.204Z,5.54
2024-03-20T23:32:39.102Z,5.52
2024-03-20T23:35:20.083Z,5.50
2024-03-20T23:37:53.381Z,5.49
2024-03-20T23:40:32.393Z,5.47
2024-03-20T23:43:08.761Z,5.46
2024-03-20T23:45:41.339Z,5.45
2024-03-20T23:48:16.929Z,5.44
2024-03-20T23:51:07.745Z,5.42
2024-03-20T23:53:48.686Z,5.41
2024-03-20T23:56:23.188Z,5.40
2024-03-20T23:59:58.334Z,5.40
